sensor_id;sensor_type;location;lat;lon;timestamp;pressure;altitude;pressure_sealevel;temperature;humidity
77574;BME280;66710;48.868;9.080;2024-02-16T00:00:58;97830.88;;;10.54;66.08
77574;BME280;66710;48.868;9.080;2024-02-16T00:03:23;97838.03;;;10.65;65.28
77574;BME280;66710;48.868;9.080;2024-02-16T00:05:49;97846.00;;;10.60;65.17
77574;BME280;66710;48.868;9.080;2024-02-16T00:08:17;97843.75;;;10.52;65.60
77574;BME280;66710;48.868;9.080;2024-02-16T00:10:42;97843.75;;;10.52;65.56
77574;BME280;66710;48.868;9.080;2024-02-16T00:13:08;97843.66;;;10.47;66.16
77574;BME280;66710;48.868;9.080;2024-02-16T00:15:33;97841.53;;;10.49;65.99
77574;BME280;66710;48.868;9.080;2024-02-16T00:17:58;97844.31;;;10.54;65.45
77574;BME280;66710;48.868;9.080;2024-02-16T00:20:24;97840.09;;;10.58;64.90
77574;BME280;66710;48.868;9.080;2024-02-16T00:22:49;97839.53;;;10.56;65.05
77574;BME280;66710;48.868;9.080;2024-02-16T00:25:15;97837.53;;;10.35;66.37
77574;BME280;66710;48.868;9.080;2024-02-16T00:27:40;97835.13;;;10.50;65.51
77574;BME280;66710;48.868;9.080;2024-02-16T00:30:07;97837.81;;;10.50;65.35
77574;BME280;66710;48.868;9.080;2024-02-16T00:32:32;97839.25;;;10.41;66.36
77574;BME280;66710;48.868;9.080;2024-02-16T00:34:57;97823.38;;;10.39;66.62
77574;BME280;66710;48.868;9.080;2024-02-16T00:37:23;97831.19;;;10.12;68.07
77574;BME280;66710;48.868;9.080;2024-02-16T00:39:50;97821.63;;;9.88;69.11
77574;BME280;66710;48.868;9.080;2024-02-16T00:42:15;97816.47;;;9.98;68.87
77574;BME280;66710;48.868;9.080;2024-02-16T00:44:40;97819.91;;;9.82;69.69
77574;BME280;66710;48.868;9.080;2024-02-16T00:47:06;97813.19;;;9.68;71.04
77574;BME280;66710;48.868;9.080;2024-02-16T00:49:32;97805.19;;;9.56;71.50
77574;BME280;66710;48.868;9.080;2024-02-16T00:51:57;97813.78;;;9.58;71.18
77574;BME280;66710;48.868;9.080;2024-02-16T00:54:23;97815.09;;;9.55;71.92
77574;BME280;66710;48.868;9.080;2024-02-16T00:56:48;97810.56;;;9.56;71.17
77574;BME280;66710;48.868;9.080;2024-02-16T00:59:13;97817.84;;;9.72;70.23
77574;BME280;66710;48.868;9.080;2024-02-16T01:01:39;97824.13;;;9.78;70.18
77574;BME280;66710;48.868;9.080;2024-02-16T01:04:04;97820.72;;;9.82;69.74
77574;BME280;66710;48.868;9.080;2024-02-16T01:06:32;97819.78;;;9.77;70.56
77574;BME280;66710;48.868;9.080;2024-02-16T01:08:57;97822.41;;;9.72;70.64
77574;BME280;66710;48.868;9.080;2024-02-16T01:11:22;97813.09;;;9.62;71.42
77574;BME280;66710;48.868;9.080;2024-02-16T01:13:48;97815.03;;;9.79;70.12
77574;BME280;66710;48.868;9.080;2024-02-16T01:16:13;97819.19;;;9.86;70.04
77574;BME280;66710;48.868;9.080;2024-02-16T01:18:39;97816.66;;;9.80;70.21
77574;BME280;66710;48.868;9.080;2024-02-16T01:21:05;97824.59;;;9.75;70.20
77574;BME280;66710;48.868;9.080;2024-02-16T01:23:30;97821.13;;;9.62;71.41
77574;BME280;66710;48.868;9.080;2024-02-16T01:25:55;97825.81;;;9.55;72.34
77574;BME280;66710;48.868;9.080;2024-02-16T01:28:21;97821.56;;;9.43;72.59
77574;BME280;66710;48.868;9.080;2024-02-16T01:30:48;97825.97;;;9.49;71.53
77574;BME280;66710;48.868;9.080;2024-02-16T01:33:13;97827.44;;;9.56;71.59
77574;BME280;66710;48.868;9.080;2024-02-16T01:35:39;97821.00;;;9.69;70.84
77574;BME280;66710;48.868;9.080;2024-02-16T01:38:04;97819.94;;;9.70;70.71
77574;BME280;66710;48.868;9.080;2024-02-16T01:40:30;97825.69;;;9.62;71.42
77574;BME280;66710;48.868;9.080;2024-02-16T01:42:56;97828.66;;;9.77;70.47
77574;BME280;66710;48.868;9.080;2024-02-16T01:45:22;97826.34;;;9.69;71.17
77574;BME280;66710;48.868;9.080;2024-02-16T01:47:49;97823.44;;;9.30;73.52
77574;BME280;66710;48.868;9.080;2024-02-16T01:50:16;97824.25;;;9.31;74.01
77574;BME280;66710;48.868;9.080;2024-02-16T01:52:43;97817.94;;;9.37;73.41
77574;BME280;66710;48.868;9.080;2024-02-16T01:55:09;97814.47;;;9.65;70.27
77574;BME280;66710;48.868;9.080;2024-02-16T01:57:36;97816.00;;;9.89;69.24
77574;BME280;66710;48.868;9.080;2024-02-16T02:00:02;97813.44;;;9.66;71.60
77574;BME280;66710;48.868;9.080;2024-02-16T02:02:28;97810.63;;;9.73;71.11
77574;BME280;66710;48.868;9.080;2024-02-16T02:04:53;97807.47;;;9.64;72.54
77574;BME280;66710;48.868;9.080;2024-02-16T02:07:25;97810.56;;;9.56;73.01
77574;BME280;66710;48.868;9.080;2024-02-16T02:09:51;97803.94;;;9.35;74.32
77574;BME280;66710;48.868;9.080;2024-02-16T02:12:16;97802.03;;;9.47;73.42
77574;BME280;66710;48.868;9.080;2024-02-16T02:14:42;97801.13;;;9.82;70.36
77574;BME280;66710;48.868;9.080;2024-02-16T02:17:07;97803.09;;;9.86;70.75
77574;BME280;66710;48.868;9.080;2024-02-16T02:19:33;97793.56;;;9.79;71.20
77574;BME280;66710;48.868;9.080;2024-02-16T02:21:58;97796.44;;;9.60;72.94
77574;BME280;66710;48.868;9.080;2024-02-16T02:24:23;97798.97;;;9.96;70.32
77574;BME280;66710;48.868;9.080;2024-02-16T02:26:49;97799.91;;;9.89;70.42
77574;BME280;66710;48.868;9.080;2024-02-16T02:29:14;97792.03;;;9.54;73.79
77574;BME280;66710;48.868;9.080;2024-02-16T02:31:39;97791.31;;;9.47;74.12
77574;BME280;66710;48.868;9.080;2024-02-16T02:34:05;97790.88;;;9.50;73.52
77574;BME280;66710;48.868;9.080;2024-02-16T02:36:31;97789.72;;;9.34;74.06
77574;BME280;66710;48.868;9.080;2024-02-16T02:38:58;97786.84;;;9.36;73.78
77574;BME280;66710;48.868;9.080;2024-02-16T02:41:23;97784.97;;;9.65;72.02
77574;BME280;66710;48.868;9.080;2024-02-16T02:43:49;97786.50;;;9.61;72.92
77574;BME280;66710;48.868;9.080;2024-02-16T02:46:17;97779.06;;;9.51;73.45
77574;BME280;66710;48.868;9.080;2024-02-16T02:48:44;97780.69;;;9.52;73.08
77574;BME280;66710;48.868;9.080;2024-02-16T02:51:10;97778.13;;;9.57;72.28
77574;BME280;66710;48.868;9.080;2024-02-16T02:53:35;97776.41;;;9.51;73.28
77574;BME280;66710;48.868;9.080;2024-02-16T02:56:01;97776.09;;;9.36;74.51
77574;BME280;66710;48.868;9.080;2024-02-16T02:58:28;97772.25;;;9.32;74.67
77574;BME280;66710;48.868;9.080;2024-02-16T03:00:53;97753.75;;;9.30;74.24
77574;BME280;66710;48.868;9.080;2024-02-16T03:03:19;97757.69;;;9.28;74.48
77574;BME280;66710;48.868;9.080;2024-02-16T03:05:45;97759.09;;;9.30;74.19
77574;BME280;66710;48.868;9.080;2024-02-16T03:08:10;97760.69;;;9.43;73.63
77574;BME280;66710;48.868;9.080;2024-02-16T03:10:36;97758.16;;;9.36;74.23
77574;BME280;66710;48.868;9.080;2024-02-16T03:13:02;97765.41;;;9.24;74.56
77574;BME280;66710;48.868;9.080;2024-02-16T03:15:28;97770.16;;;9.34;74.14
77574;BME280;66710;48.868;9.080;2024-02-16T03:17:57;97764.66;;;9.41;73.97
77574;BME280;66710;48.868;9.080;2024-02-16T03:20:22;97764.53;;;9.35;73.80
77574;BME280;66710;48.868;9.080;2024-02-16T03:22:48;97765.84;;;9.33;73.47
77574;BME280;66710;48.868;9.080;2024-02-16T03:25:14;97764.59;;;9.24;74.67
77574;BME280;66710;48.868;9.080;2024-02-16T03:27:40;97766.56;;;9.28;73.85
77574;BME280;66710;48.868;9.080;2024-02-16T03:30:08;97777.38;;;9.33;73.22
77574;BME280;66710;48.868;9.080;2024-02-16T03:32:33;97775.09;;;9.25;74.05
77574;BME280;66710;48.868;9.080;2024-02-16T03:34:59;97767.19;;;9.19;74.13
77574;BME280;66710;48.868;9.080;2024-02-16T03:37:25;97776.38;;;9.11;74.75
77574;BME280;66710;48.868;9.080;2024-02-16T03:39:50;97784.41;;;9.11;75.12
77574;BME280;66710;48.868;9.080;2024-02-16T03:42:16;97775.81;;;8.97;76.40
77574;BME280;66710;48.868;9.080;2024-02-16T03:44:43;97780.91;;;9.10;75.34
77574;BME280;66710;48.868;9.080;2024-02-16T03:47:09;97778.63;;;9.02;76.42
77574;BME280;66710;48.868;9.080;2024-02-16T03:49:35;97775.66;;;9.27;74.78
77574;BME280;66710;48.868;9.080;2024-02-16T03:52:00;97777.16;;;9.23;74.59
77574;BME280;66710;48.868;9.080;2024-02-16T03:54:26;97769.97;;;9.24;74.58
77574;BME280;66710;48.868;9.080;2024-02-16T03:56:55;97770.63;;;9.31;73.97
77574;BME280;66710;48.868;9.080;2024-02-16T03:59:20;97775.91;;;9.26;74.18
77574;BME280;66710;48.868;9.080;2024-02-16T04:01:45;97778.56;;;9.26;74.37
77574;BME280;66710;48.868;9.080;2024-02-16T04:04:11;97764.25;;;9.20;74.50
77574;BME280;66710;48.868;9.080;2024-02-16T04:06:38;97763.91;;;9.17;74.85
77574;BME280;66710;48.868;9.080;2024-02-16T04:09:03;97764.97;;;9.04;76.01
77574;BME280;66710;48.868;9.080;2024-02-16T04:11:31;97765.78;;;9.04;75.76
77574;BME280;66710;48.868;9.080;2024-02-16T04:13:57;97772.47;;;8.90;76.71
77574;BME280;66710;48.868;9.080;2024-02-16T04:16:22;97777.47;;;8.63;77.93
77574;BME280;66710;48.868;9.080;2024-02-16T04:18:50;97776.44;;;8.64;77.54
77574;BME280;66710;48.868;9.080;2024-02-16T04:21:15;97778.41;;;8.80;76.35
77574;BME280;66710;48.868;9.080;2024-02-16T04:23:40;97782.13;;;8.91;75.99
77574;BME280;66710;48.868;9.080;2024-02-16T04:26:06;97779.31;;;8.86;76.08
77574;BME280;66710;48.868;9.080;2024-02-16T04:28:32;97793.31;;;8.88;75.94
77574;BME280;66710;48.868;9.080;2024-02-16T04:30:57;97790.03;;;8.86;76.40
77574;BME280;66710;48.868;9.080;2024-02-16T04:33:22;97786.31;;;8.87;76.05
77574;BME280;66710;48.868;9.080;2024-02-16T04:35:48;97793.31;;;8.88;76.17
77574;BME280;66710;48.868;9.080;2024-02-16T04:38:15;97791.22;;;8.90;75.94
77574;BME280;66710;48.868;9.080;2024-02-16T04:40:41;97794.25;;;8.94;75.80
77574;BME280;66710;48.868;9.080;2024-02-16T04:43:06;97799.81;;;8.92;76.63
77574;BME280;66710;48.868;9.080;2024-02-16T04:45:31;97792.59;;;8.93;76.04
77574;BME280;66710;48.868;9.080;2024-02-16T04:47:57;97796.00;;;9.00;75.81
77574;BME280;66710;48.868;9.080;2024-02-16T04:50:22;97800.41;;;9.06;74.93
77574;BME280;66710;48.868;9.080;2024-02-16T04:52:47;97798.88;;;9.10;75.25
77574;BME280;66710;48.868;9.080;2024-02-16T04:55:13;97791.88;;;9.09;74.87
77574;BME280;66710;48.868;9.080;2024-02-16T04:57:38;97788.84;;;9.05;75.11
77574;BME280;66710;48.868;9.080;2024-02-16T05:00:04;97795.94;;;9.11;75.18
77574;BME280;66710;48.868;9.080;2024-02-16T05:02:29;97798.88;;;9.10;74.84
77574;BME280;66710;48.868;9.080;2024-02-16T05:04:55;97806.44;;;9.13;74.65
77574;BME280;66710;48.868;9.080;2024-02-16T05:07:20;97802.47;;;9.16;74.05
77574;BME280;66710;48.868;9.080;2024-02-16T05:09:46;97804.22;;;9.10;74.40
77574;BME280;66710;48.868;9.080;2024-02-16T05:12:11;97810.78;;;9.02;75.00
77574;BME280;66710;48.868;9.080;2024-02-16T05:14:36;97800.63;;;8.93;76.11
77574;BME280;66710;48.868;9.080;2024-02-16T05:17:02;97804.13;;;8.81;76.85
77574;BME280;66710;48.868;9.080;2024-02-16T05:19:32;97805.19;;;8.80;76.97
77574;BME280;66710;48.868;9.080;2024-02-16T05:21:57;97803.69;;;8.73;77.48
77574;BME280;66710;48.868;9.080;2024-02-16T05:24:22;97806.84;;;8.70;77.85
77574;BME280;66710;48.868;9.080;2024-02-16T05:26:48;97807.53;;;8.65;77.35
77574;BME280;66710;48.868;9.080;2024-02-16T05:29:13;97816.81;;;8.63;77.98
77574;BME280;66710;48.868;9.080;2024-02-16T05:31:38;97813.56;;;8.61;77.80
77574;BME280;66710;48.868;9.080;2024-02-16T05:34:04;97823.69;;;8.58;77.59
77574;BME280;66710;48.868;9.080;2024-02-16T05:36:29;97824.16;;;8.55;78.06
77574;BME280;66710;48.868;9.080;2024-02-16T05:39:00;97816.81;;;8.51;77.95
77574;BME280;66710;48.868;9.080;2024-02-16T05:41:34;97820.19;;;8.46;79.16
77574;BME280;66710;48.868;9.080;2024-02-16T05:44:02;97819.72;;;8.49;78.41
77574;BME280;66710;48.868;9.080;2024-02-16T05:46:28;97824.59;;;8.41;78.29
77574;BME280;66710;48.868;9.080;2024-02-16T05:48:53;97827.28;;;8.41;78.74
77574;BME280;66710;48.868;9.080;2024-02-16T05:51:18;97827.50;;;8.39;78.33
77574;BME280;66710;48.868;9.080;2024-02-16T05:53:44;97836.56;;;8.38;78.84
77574;BME280;66710;48.868;9.080;2024-02-16T05:56:10;97829.44;;;8.32;78.93
77574;BME280;66710;48.868;9.080;2024-02-16T05:58:35;97832.72;;;8.34;78.82
77574;BME280;66710;48.868;9.080;2024-02-16T06:01:01;97834.22;;;8.30;79.20
77574;BME280;66710;48.868;9.080;2024-02-16T06:03:26;97834.56;;;8.33;79.12
77574;BME280;66710;48.868;9.080;2024-02-16T06:05:54;97839.38;;;8.43;78.49
77574;BME280;66710;48.868;9.080;2024-02-16T06:08:20;97839.28;;;8.50;78.09
77574;BME280;66710;48.868;9.080;2024-02-16T06:10:45;97841.25;;;8.54;77.69
77574;BME280;66710;48.868;9.080;2024-02-16T06:13:17;97845.56;;;8.55;77.32
77574;BME280;66710;48.868;9.080;2024-02-16T06:15:43;97851.06;;;8.61;76.72
77574;BME280;66710;48.868;9.080;2024-02-16T06:18:08;97858.25;;;8.48;77.84
77574;BME280;66710;48.868;9.080;2024-02-16T06:20:34;97863.25;;;8.45;78.90
77574;BME280;66710;48.868;9.080;2024-02-16T06:23:00;97864.75;;;8.41;78.11
77574;BME280;66710;48.868;9.080;2024-02-16T06:25:25;97857.63;;;8.35;78.54
77574;BME280;66710;48.868;9.080;2024-02-16T06:27:50;97862.38;;;8.32;78.83
77574;BME280;66710;48.868;9.080;2024-02-16T06:30:16;97853.63;;;8.25;78.76
77574;BME280;66710;48.868;9.080;2024-02-16T06:32:41;97856.34;;;8.37;78.25
77574;BME280;66710;48.868;9.080;2024-02-16T06:35:07;97857.25;;;8.31;78.01
77574;BME280;66710;48.868;9.080;2024-02-16T06:37:33;97856.06;;;8.27;78.58
77574;BME280;66710;48.868;9.080;2024-02-16T06:39:59;97865.13;;;8.26;78.83
77574;BME280;66710;48.868;9.080;2024-02-16T06:42:24;97864.91;;;8.16;79.37
77574;BME280;66710;48.868;9.080;2024-02-16T06:44:49;97862.25;;;7.97;79.90
77574;BME280;66710;48.868;9.080;2024-02-16T06:47:15;97867.25;;;7.94;79.74
77574;BME280;66710;48.868;9.080;2024-02-16T06:49:40;97875.00;;;8.14;78.67
77574;BME280;66710;48.868;9.080;2024-02-16T06:52:05;97884.53;;;8.10;79.18
77574;BME280;66710;48.868;9.080;2024-02-16T06:54:31;97879.91;;;8.17;78.76
77574;BME280;66710;48.868;9.080;2024-02-16T06:56:56;97880.84;;;8.22;78.49
77574;BME280;66710;48.868;9.080;2024-02-16T06:59:22;97887.03;;;8.23;78.07
77574;BME280;66710;48.868;9.080;2024-02-16T07:01:47;97889.47;;;8.24;77.71
77574;BME280;66710;48.868;9.080;2024-02-16T07:04:13;97899.25;;;8.30;77.94
77574;BME280;66710;48.868;9.080;2024-02-16T07:06:38;97904.97;;;8.34;78.19
77574;BME280;66710;48.868;9.080;2024-02-16T07:09:03;97902.44;;;8.39;77.27
77574;BME280;66710;48.868;9.080;2024-02-16T07:11:29;97906.69;;;8.47;76.81
77574;BME280;66710;48.868;9.080;2024-02-16T07:13:54;97909.56;;;8.45;77.99
77574;BME280;66710;48.868;9.080;2024-02-16T07:16:20;97909.13;;;8.48;77.78
77574;BME280;66710;48.868;9.080;2024-02-16T07:18:45;97906.81;;;8.52;77.95
77574;BME280;66710;48.868;9.080;2024-02-16T07:21:10;97911.59;;;8.62;77.08
77574;BME280;66710;48.868;9.080;2024-02-16T07:23:36;97912.31;;;8.69;76.19
77574;BME280;66710;48.868;9.080;2024-02-16T07:26:02;97913.38;;;8.79;75.34
77574;BME280;66710;48.868;9.080;2024-02-16T07:28:27;97920.56;;;8.67;76.61
77574;BME280;66710;48.868;9.080;2024-02-16T07:30:53;97921.03;;;8.64;76.93
77574;BME280;66710;48.868;9.080;2024-02-16T07:33:18;97922.31;;;8.62;77.10
77574;BME280;66710;48.868;9.080;2024-02-16T07:35:44;97930.19;;;8.56;77.21
77574;BME280;66710;48.868;9.080;2024-02-16T07:38:10;97930.81;;;8.58;77.39
77574;BME280;66710;48.868;9.080;2024-02-16T07:40:36;97930.09;;;8.63;77.02
77574;BME280;66710;48.868;9.080;2024-02-16T07:43:02;97937.00;;;8.71;76.10
77574;BME280;66710;48.868;9.080;2024-02-16T07:45:31;97931.31;;;8.79;75.76
77574;BME280;66710;48.868;9.080;2024-02-16T07:47:56;97932.50;;;8.83;75.68
77574;BME280;66710;48.868;9.080;2024-02-16T07:50:22;97931.56;;;8.89;75.60
77574;BME280;66710;48.868;9.080;2024-02-16T07:52:49;97923.75;;;8.99;74.62
77574;BME280;66710;48.868;9.080;2024-02-16T07:55:15;97938.06;;;9.87;72.39
77574;BME280;66710;48.868;9.080;2024-02-16T07:57:42;97937.63;;;11.43;65.95
77574;BME280;66710;48.868;9.080;2024-02-16T08:00:08;97949.69;;;12.18;63.08
77574;BME280;66710;48.868;9.080;2024-02-16T08:02:36;97939.47;;;12.42;62.27
77574;BME280;66710;48.868;9.080;2024-02-16T08:05:01;97943.38;;;12.88;61.41
77574;BME280;66710;48.868;9.080;2024-02-16T08:07:27;97943.16;;;12.36;62.94
77574;BME280;66710;48.868;9.080;2024-02-16T08:09:52;97940.63;;;12.51;61.51
77574;BME280;66710;48.868;9.080;2024-02-16T08:12:17;97941.50;;;12.89;61.03
77574;BME280;66710;48.868;9.080;2024-02-16T08:14:43;97947.16;;;12.87;59.79
77574;BME280;66710;48.868;9.080;2024-02-16T08:17:10;97963.41;;;13.24;58.92
77574;BME280;66710;48.868;9.080;2024-02-16T08:19:37;97959.09;;;14.13;56.63
77574;BME280;66710;48.868;9.080;2024-02-16T08:22:04;97955.53;;;14.65;54.23
77574;BME280;66710;48.868;9.080;2024-02-16T08:24:35;97966.31;;;16.02;51.44
77574;BME280;66710;48.868;9.080;2024-02-16T08:27:00;97958.84;;;15.18;51.14
77574;BME280;66710;48.868;9.080;2024-02-16T08:29:26;97961.34;;;14.36;53.70
77574;BME280;66710;48.868;9.080;2024-02-16T08:31:52;97965.38;;;14.24;55.15
77574;BME280;66710;48.868;9.080;2024-02-16T08:34:18;97968.03;;;15.27;51.21
77574;BME280;66710;48.868;9.080;2024-02-16T08:36:46;97964.56;;;14.28;53.92
77574;BME280;66710;48.868;9.080;2024-02-16T08:39:12;97960.94;;;14.75;52.40
77574;BME280;66710;48.868;9.080;2024-02-16T08:41:38;97961.25;;;15.60;49.95
77574;BME280;66710;48.868;9.080;2024-02-16T08:44:04;97953.84;;;13.91;54.69
77574;BME280;66710;48.868;9.080;2024-02-16T08:46:29;97959.59;;;14.93;53.69
77574;BME280;66710;48.868;9.080;2024-02-16T08:48:55;97968.53;;;14.83;51.43
77574;BME280;66710;48.868;9.080;2024-02-16T08:51:20;97961.44;;;14.62;52.80
77574;BME280;66710;48.868;9.080;2024-02-16T08:53:46;97964.72;;;15.81;50.40
77574;BME280;66710;48.868;9.080;2024-02-16T08:56:12;97969.25;;;16.11;48.41
77574;BME280;66710;48.868;9.080;2024-02-16T08:58:38;97966.25;;;16.18;49.05
77574;BME280;66710;48.868;9.080;2024-02-16T09:01:04;97969.03;;;15.92;48.92
77574;BME280;66710;48.868;9.080;2024-02-16T09:03:30;97975.06;;;15.74;50.22
77574;BME280;66710;48.868;9.080;2024-02-16T09:06:02;97976.44;;;15.66;50.04
77574;BME280;66710;48.868;9.080;2024-02-16T09:08:27;97977.03;;;16.93;46.27
77574;BME280;66710;48.868;9.080;2024-02-16T09:10:55;97984.56;;;16.51;48.57
77574;BME280;66710;48.868;9.080;2024-02-16T09:13:21;97972.34;;;16.49;48.38
77574;BME280;66710;48.868;9.080;2024-02-16T09:15:46;97975.06;;;15.69;50.62
77574;BME280;66710;48.868;9.080;2024-02-16T09:18:13;97976.44;;;15.66;51.71
77574;BME280;66710;48.868;9.080;2024-02-16T09:20:39;97971.25;;;15.09;53.29
77574;BME280;66710;48.868;9.080;2024-02-16T09:23:04;97968.28;;;15.20;52.62
77574;BME280;66710;48.868;9.080;2024-02-16T09:25:29;97962.88;;;15.10;53.10
77574;BME280;66710;48.868;9.080;2024-02-16T09:27:56;97957.91;;;14.51;52.77
77574;BME280;66710;48.868;9.080;2024-02-16T09:30:21;97964.13;;;14.57;53.19
77574;BME280;66710;48.868;9.080;2024-02-16T09:32:46;97968.78;;;14.71;53.75
77574;BME280;66710;48.868;9.080;2024-02-16T09:35:12;97983.97;;;14.88;52.53
77574;BME280;66710;48.868;9.080;2024-02-16T09:37:39;97982.91;;;15.75;49.74
77574;BME280;66710;48.868;9.080;2024-02-16T09:40:05;97991.53;;;15.88;50.75
77574;BME280;66710;48.868;9.080;2024-02-16T09:42:36;97996.81;;;16.33;48.64
77574;BME280;66710;48.868;9.080;2024-02-16T09:45:04;98012.28;;;18.48;45.54
77574;BME280;66710;48.868;9.080;2024-02-16T09:47:30;98011.22;;;16.89;46.02
77574;BME280;66710;48.868;9.080;2024-02-16T09:49:58;98017.94;;;16.37;48.72
77574;BME280;66710;48.868;9.080;2024-02-16T09:52:23;98016.69;;;16.83;47.61
77574;BME280;66710;48.868;9.080;2024-02-16T09:54:49;98017.22;;;17.93;46.59
77574;BME280;66710;48.868;9.080;2024-02-16T09:57:17;98013.19;;;17.90;45.05
77574;BME280;66710;48.868;9.080;2024-02-16T09:59:42;98015.91;;;16.73;47.57
77574;BME280;66710;48.868;9.080;2024-02-16T10:02:08;98018.31;;;16.20;49.04
77574;BME280;66710;48.868;9.080;2024-02-16T10:04:34;98020.78;;;16.81;47.53
77574;BME280;66710;48.868;9.080;2024-02-16T10:07:00;98023.91;;;17.43;46.41
77574;BME280;66710;48.868;9.080;2024-02-16T10:09:27;98019.72;;;17.89;46.55
77574;BME280;66710;48.868;9.080;2024-02-16T10:11:54;98027.78;;;17.31;47.16
77574;BME280;66710;48.868;9.080;2024-02-16T10:14:20;98025.16;;;17.55;46.41
77574;BME280;66710;48.868;9.080;2024-02-16T10:16:47;98031.13;;;17.18;47.55
77574;BME280;66710;48.868;9.080;2024-02-16T10:19:13;98027.91;;;17.50;46.74
77574;BME280;66710;48.868;9.080;2024-02-16T10:21:39;98027.13;;;17.10;45.78
77574;BME280;66710;48.868;9.080;2024-02-16T10:24:06;98033.28;;;16.77;45.92
77574;BME280;66710;48.868;9.080;2024-02-16T10:26:36;98039.81;;;16.71;48.61
77574;BME280;66710;48.868;9.080;2024-02-16T10:29:05;98045.53;;;17.13;47.96
77574;BME280;66710;48.868;9.080;2024-02-16T10:31:31;98041.47;;;17.16;47.85
77574;BME280;66710;48.868;9.080;2024-02-16T10:34:02;98039.13;;;17.38;46.45
77574;BME280;66710;48.868;9.080;2024-02-16T10:36:34;98051.72;;;17.24;48.22
77574;BME280;66710;48.868;9.080;2024-02-16T10:39:00;98055.09;;;17.84;44.36
77574;BME280;66710;48.868;9.080;2024-02-16T10:41:40;98050.88;;;17.34;45.70
77574;BME280;66710;48.868;9.080;2024-02-16T10:44:05;98054.47;;;17.19;48.24
77574;BME280;66710;48.868;9.080;2024-02-16T10:46:31;98050.63;;;17.25;47.47
77574;BME280;66710;48.868;9.080;2024-02-16T10:48:57;98054.59;;;17.04;46.31
77574;BME280;66710;48.868;9.080;2024-02-16T10:51:30;98059.63;;;16.61;47.30
77574;BME280;66710;48.868;9.080;2024-02-16T10:53:56;98059.09;;;16.59;47.96
77574;BME280;66710;48.868;9.080;2024-02-16T10:56:34;98069.09;;;16.69;49.36
77574;BME280;66710;48.868;9.080;2024-02-16T10:59:02;98059.91;;;16.59;49.42
77574;BME280;66710;48.868;9.080;2024-02-16T11:01:27;98062.34;;;16.71;48.33
77574;BME280;66710;48.868;9.080;2024-02-16T11:04:16;98063.22;;;16.41;49.36
77574;BME280;66710;48.868;9.080;2024-02-16T11:06:46;98062.09;;;16.52;49.54
77574;BME280;66710;48.868;9.080;2024-02-16T11:09:22;98062.94;;;16.43;48.84
77574;BME280;66710;48.868;9.080;2024-02-16T11:11:54;98064.78;;;16.68;48.79
77574;BME280;66710;48.868;9.080;2024-02-16T11:14:22;98059.38;;;16.63;48.40
77574;BME280;66710;48.868;9.080;2024-02-16T11:16:48;98058.13;;;16.99;47.33
77574;BME280;66710;48.868;9.080;2024-02-16T11:19:14;98054.75;;;17.18;48.84
77574;BME280;66710;48.868;9.080;2024-02-16T11:21:58;98055.41;;;17.04;48.39
77574;BME280;66710;48.868;9.080;2024-02-16T11:24:30;98057.25;;;17.09;47.09
77574;BME280;66710;48.868;9.080;2024-02-16T11:26:56;98055.75;;;17.32;47.28
77574;BME280;66710;48.868;9.080;2024-02-16T11:29:22;98053.34;;;17.25;46.39
77574;BME280;66710;48.868;9.080;2024-02-16T11:31:47;98051.44;;;17.26;46.68
77574;BME280;66710;48.868;9.080;2024-02-16T11:34:23;98059.38;;;16.63;48.57
77574;BME280;66710;48.868;9.080;2024-02-16T11:36:48;98047.56;;;17.37;48.25
77574;BME280;66710;48.868;9.080;2024-02-16T11:39:14;98049.31;;;17.57;46.48
77574;BME280;66710;48.868;9.080;2024-02-16T11:41:42;98052.97;;;17.42;47.18
77574;BME280;66710;48.868;9.080;2024-02-16T11:44:08;98051.78;;;17.14;47.78
77574;BME280;66710;48.868;9.080;2024-02-16T11:46:33;98047.59;;;17.32;47.61
77574;BME280;66710;48.868;9.080;2024-02-16T11:49:08;98045.53;;;17.13;48.49
77574;BME280;66710;48.868;9.080;2024-02-16T11:51:33;98052.38;;;17.11;48.75
77574;BME280;66710;48.868;9.080;2024-02-16T11:53:59;98050.66;;;16.66;49.26
77574;BME280;66710;48.868;9.080;2024-02-16T11:56:25;98053.50;;;17.00;48.79
77574;BME280;66710;48.868;9.080;2024-02-16T11:58:52;98045.44;;;17.34;48.85
77574;BME280;66710;48.868;9.080;2024-02-16T12:01:17;98055.97;;;16.96;49.51
77574;BME280;66710;48.868;9.080;2024-02-16T12:03:43;98054.59;;;16.99;48.96
77574;BME280;66710;48.868;9.080;2024-02-16T12:06:08;98052.78;;;16.79;50.28
77574;BME280;66710;48.868;9.080;2024-02-16T12:08:34;98057.53;;;17.07;49.87
77574;BME280;66710;48.868;9.080;2024-02-16T12:11:00;98052.59;;;17.15;50.13
77574;BME280;66710;48.868;9.080;2024-02-16T12:13:27;98054.13;;;16.87;50.55
77574;BME280;66710;48.868;9.080;2024-02-16T12:15:52;98049.56;;;16.77;51.81
77574;BME280;66710;48.868;9.080;2024-02-16T12:18:22;98055.28;;;16.70;52.89
77574;BME280;66710;48.868;9.080;2024-02-16T12:21:00;98055.56;;;16.74;52.64
77574;BME280;66710;48.868;9.080;2024-02-16T12:23:27;98062.63;;;16.59;53.07
77574;BME280;66710;48.868;9.080;2024-02-16T12:25:52;98054.97;;;16.67;53.27
77574;BME280;66710;48.868;9.080;2024-02-16T12:28:18;98054.50;;;16.54;53.06
77574;BME280;66710;48.868;9.080;2024-02-16T12:30:46;98057.81;;;16.41;53.64
77574;BME280;66710;48.868;9.080;2024-02-16T12:33:11;98056.16;;;16.45;53.13
77574;BME280;66710;48.868;9.080;2024-02-16T12:35:36;98049.75;;;16.21;53.14
77574;BME280;66710;48.868;9.080;2024-02-16T12:38:01;98057.31;;;16.29;53.21
77574;BME280;66710;48.868;9.080;2024-02-16T12:40:27;98061.63;;;16.35;53.84
77574;BME280;66710;48.868;9.080;2024-02-16T12:42:52;98055.69;;;16.23;54.20
77574;BME280;66710;48.868;9.080;2024-02-16T12:45:17;98061.09;;;16.28;54.48
77574;BME280;66710;48.868;9.080;2024-02-16T12:47:43;98049.16;;;16.34;54.29
77574;BME280;66710;48.868;9.080;2024-02-16T12:50:08;98055.69;;;16.23;54.58
77574;BME280;66710;48.868;9.080;2024-02-16T12:52:34;98055.16;;;16.26;54.62
77574;BME280;66710;48.868;9.080;2024-02-16T12:55:02;98061.81;;;16.59;54.06
77574;BME280;66710;48.868;9.080;2024-02-16T12:57:28;98062.38;;;16.56;54.22
77574;BME280;66710;48.868;9.080;2024-02-16T12:59:54;98057.78;;;16.51;54.26